Time;durP1;ratioP1;P1;durP2;ratioP2;P2;SDS_P1;SDS_P2;PMS_P1;PMS_P2;Temp;Humidity;BMP_temperature;BMP_pressure;BME280_temperature;BME280_humidity;BME280_pressure;Samples;Min_cycle;Max_cycle;Signal;HPM_P1;HPM_P2
2023/06/05 00:01:10;;;;;;;2.90;2.57;;;18.50;54.00;;;;;;5094279;28;20461;-76
2023/06/05 00:03:39;;;;;;;6.03;2.77;;;18.50;54.00;;;;;;5078858;28;20485;-75
2023/06/05 00:06:06;;;;;;;2.30;2.10;;;18.40;53.90;;;;;;5054621;28;20475;-76
2023/06/05 00:08:33;;;;;;;2.87;2.67;;;18.40;53.90;;;;;;5053622;28;20562;-75
2023/06/05 00:11:00;;;;;;;2.43;2.20;;;18.40;54.00;;;;;;5067285;28;20466;-77
2023/06/05 00:13:29;;;;;;;3.60;2.37;;;18.40;54.00;;;;;;5053123;28;20467;-76
2023/06/05 00:15:57;;;;;;;2.20;2.00;;;18.30;54.00;;;;;;5053454;28;20472;-76
2023/06/05 00:18:24;;;;;;;2.87;2.13;;;18.30;54.10;;;;;;5085776;28;20470;-75
2023/06/05 00:20:51;;;;;;;4.03;2.30;;;18.30;54.20;;;;;;5092519;28;20890;-76
2023/06/05 00:23:21;;;;;;;2.33;1.80;;;18.20;54.30;;;;;;5092235;28;20489;-77
2023/06/05 00:25:48;;;;;;;4.47;2.67;;;18.20;54.30;;;;;;5092915;28;20522;-75
2023/06/05 00:28:15;;;;;;;2.23;1.90;;;18.10;54.50;;;;;;5092079;28;20547;-76
2023/06/05 00:30:43;;;;;;;2.07;1.90;;;18.10;54.60;;;;;;5093417;28;20531;-74
2023/06/05 00:33:10;;;;;;;2.60;1.73;;;18.00;54.70;;;;;;5093998;28;20526;-77
2023/06/05 00:35:37;;;;;;;2.20;1.80;;;18.00;54.70;;;;;;5092848;28;20818;-76
2023/06/05 00:38:06;;;;;;;1.87;1.77;;;18.00;54.80;;;;;;5092810;28;21028;-75
2023/06/05 00:40:33;;;;;;;3.10;1.60;;;17.90;54.90;;;;;;5091680;28;20668;-78
2023/06/05 00:43:16;;;;;;;2.00;1.80;;;17.90;55.00;;;;;;5093667;28;20484;-77
2023/06/05 00:45:45;;;;;;;2.80;2.10;;;17.80;55.10;;;;;;5081060;28;20476;-74
2023/06/05 00:48:13;;;;;;;5.53;2.17;;;17.80;55.10;;;;;;5092730;28;20462;-75
2023/06/05 00:50:41;;;;;;;1.63;1.53;;;17.80;55.10;;;;;;5083972;28;20476;-77
2023/06/05 00:53:08;;;;;;;1.67;1.40;;;17.70;55.20;;;;;;5094367;28;20783;-76
2023/06/05 00:55:36;;;;;;;1.60;1.50;;;17.70;55.40;;;;;;5082638;28;20473;-78
2023/06/05 00:58:03;;;;;;;2.80;1.73;;;17.60;55.50;;;;;;5081599;28;20557;-75
2023/06/05 01:00:33;;;;;;;1.60;1.50;;;17.60;55.70;;;;;;5092517;28;20789;-76
2023/06/05 01:03:08;;;;;;;1.70;1.50;;;17.60;55.70;;;;;;5092814;28;20493;-76
2023/06/05 01:05:36;;;;;;;2.63;1.73;;;17.50;55.70;;;;;;5093326;28;20469;-77
2023/06/05 01:08:03;;;;;;;1.67;1.57;;;17.50;55.90;;;;;;5082573;28;20466;-78
2023/06/05 01:10:31;;;;;;;5.03;1.67;;;17.50;56.00;;;;;;5073165;28;20466;-75
2023/06/05 01:13:05;;;;;;;2.20;2.00;;;17.40;56.00;;;;;;5072263;28;20466;-75
2023/06/05 01:15:36;;;;;;;2.10;1.90;;;17.40;56.10;;;;;;5062755;28;20477;-76
2023/06/05 01:18:04;;;;;;;3.37;1.97;;;17.40;56.20;;;;;;5072520;28;20477;-76
2023/06/05 01:20:36;;;;;;;2.10;1.80;;;17.30;56.40;;;;;;5075765;28;20474;-76
2023/06/05 01:23:07;;;;;;;2.60;1.50;;;17.30;56.50;;;;;;5075329;28;20864;-76
2023/06/05 01:25:40;;;;;;;2.10;1.90;;;17.30;56.70;;;;;;5093433;28;20834;-75
2023/06/05 01:28:11;;;;;;;2.43;1.97;;;17.20;56.70;;;;;;5092367;28;20822;-76
2023/06/05 01:30:46;;;;;;;2.13;2.00;;;17.20;56.90;;;;;;5092385;28;20477;-75
2023/06/05 01:33:20;;;;;;;2.30;1.87;;;17.20;56.90;;;;;;5087166;28;20489;-78
2023/06/05 01:35:51;;;;;;;1.83;1.60;;;17.20;57.00;;;;;;5093020;28;20470;-76
2023/06/05 01:38:20;;;;;;;2.47;2.20;;;17.10;57.00;;;;;;5092686;28;20457;-78
2023/06/05 01:40:51;;;;;;;2.13;1.93;;;17.10;57.20;;;;;;5091957;28;21030;-76
2023/06/05 01:43:19;;;;;;;2.23;2.00;;;17.10;57.30;;;;;;5091973;28;20469;-77
2023/06/05 01:45:48;;;;;;;1.60;1.50;;;17.10;57.50;;;;;;5091887;28;20480;-75
2023/06/05 01:48:15;;;;;;;4.30;2.13;;;17.00;57.60;;;;;;5091921;28;20479;-75
2023/06/05 01:50:43;;;;;;;1.83;1.63;;;17.00;57.80;;;;;;5092570;28;20532;-76
2023/06/05 01:53:12;;;;;;;3.43;1.90;;;17.00;57.80;;;;;;5092188;28;20462;-75
2023/06/05 01:55:43;;;;;;;1.77;1.67;;;17.00;58.00;;;;;;5092222;28;20473;-75
2023/06/05 01:58:10;;;;;;;1.80;1.63;;;16.90;58.00;;;;;;5092227;28;20512;-77
2023/06/05 02:00:37;;;;;;;1.97;1.43;;;16.90;58.00;;;;;;5092681;28;20476;-76
2023/06/05 02:03:05;;;;;;;2.47;1.80;;;16.90;58.00;;;;;;5092385;28;20530;-75
2023/06/05 02:05:33;;;;;;;1.73;1.63;;;16.90;58.00;;;;;;5071510;28;20958;-77
2023/06/05 02:08:05;;;;;;;3.20;1.90;;;16.90;58.10;;;;;;5073508;28;20484;-76
2023/06/05 02:10:32;;;;;;;2.07;1.80;;;16.90;58.30;;;;;;5069487;28;20488;-76
2023/06/05 02:13:00;;;;;;;3.93;2.40;;;16.90;58.30;;;;;;5072908;28;20470;-77
2023/06/05 02:15:28;;;;;;;2.40;2.20;;;16.80;58.30;;;;;;5071738;28;20475;-76
2023/06/05 02:17:56;;;;;;;3.10;1.87;;;16.80;58.40;;;;;;5084865;28;20872;-76
2023/06/05 02:20:26;;;;;;;1.77;1.67;;;16.80;58.50;;;;;;5091800;28;20469;-77
2023/06/05 02:22:54;;;;;;;3.00;1.80;;;16.80;58.60;;;;;;5092159;28;20484;-75
2023/06/05 02:25:25;;;;;;;2.20;2.00;;;16.80;58.50;;;;;;5090856;28;20492;-75
2023/06/05 02:27:53;;;;;;;1.30;1.20;;;16.80;58.40;;;;;;5092548;28;20469;-76
2023/06/05 02:30:21;;;;;;;2.27;1.70;;;16.80;58.50;;;;;;5091485;28;20462;-76
2023/06/05 02:32:49;;;;;;;2.37;2.17;;;16.70;58.60;;;;;;5092428;28;20530;-77
2023/06/05 02:35:16;;;;;;;1.87;1.77;;;16.70;58.80;;;;;;5091631;28;20546;-77
2023/06/05 02:37:44;;;;;;;1.90;1.77;;;16.70;58.80;;;;;;5091768;28;20469;-77
2023/06/05 02:40:15;;;;;;;2.60;2.10;;;16.60;58.80;;;;;;5091925;28;20503;-76
2023/06/05 02:42:42;;;;;;;2.57;1.63;;;16.60;58.80;;;;;;5091677;28;20507;-75
2023/06/05 02:45:10;;;;;;;2.27;2.07;;;16.60;58.80;;;;;;5082702;28;20470;-76
2023/06/05 02:47:39;;;;;;;1.60;1.50;;;16.60;59.00;;;;;;5074559;28;20532;-76
2023/06/05 02:50:11;;;;;;;1.47;1.37;;;16.60;58.90;;;;;;5064317;28;20466;-76
2023/06/05 02:52:39;;;;;;;3.83;1.97;;;16.60;58.90;;;;;;5074879;28;20470;-76
2023/06/05 02:55:07;;;;;;;3.90;1.90;;;16.60;58.80;;;;;;5074872;28;20470;-76
2023/06/05 02:57:40;;;;;;;2.23;1.83;;;16.60;58.80;;;;;;5074141;28;20463;-77
2023/06/05 03:00:10;;;;;;;2.50;1.70;;;16.60;58.70;;;;;;5075585;28;20862;-76
2023/06/05 03:02:38;;;;;;;3.60;2.17;;;16.60;58.80;;;;;;5074926;28;20462;-76
2023/06/05 03:05:09;;;;;;;3.17;1.67;;;16.60;58.80;;;;;;5075757;28;20466;-76
2023/06/05 03:07:36;;;;;;;1.70;1.60;;;16.60;58.80;;;;;;5074887;28;20470;-76
2023/06/05 03:10:04;;;;;;;3.13;2.20;;;16.60;58.80;;;;;;5075420;28;20504;-76
2023/06/05 03:12:31;;;;;;;2.37;1.93;;;16.60;58.80;;;;;;5073564;28;20470;-77
2023/06/05 03:14:58;;;;;;;1.67;1.53;;;16.60;58.80;;;;;;5075405;28;20539;-76
2023/06/05 03:17:25;;;;;;;5.50;2.40;;;16.60;58.70;;;;;;5082224;28;20462;-76
2023/06/05 03:19:53;;;;;;;2.20;1.70;;;16.60;58.70;;;;;;5095395;28;20465;-76
2023/06/05 03:22:20;;;;;;;2.23;1.60;;;16.70;58.90;;;;;;5095249;28;20457;-76
2023/06/05 03:24:47;;;;;;;1.90;1.63;;;16.70;59.10;;;;;;5094124;28;20460;-74
2023/06/05 03:27:14;;;;;;;5.23;1.60;;;16.60;59.00;;;;;;5095429;28;20457;-75
2023/06/05 03:29:42;;;;;;;2.90;1.80;;;16.70;59.10;;;;;;5094320;28;20471;-74
2023/06/05 03:32:11;;;;;;;2.87;2.20;;;16.70;59.10;;;;;;5094982;28;20470;-76
2023/06/05 03:34:38;;;;;;;4.50;2.30;;;16.60;59.20;;;;;;5094197;28;21020;-76
2023/06/05 03:37:06;;;;;;;3.47;2.13;;;16.60;59.20;;;;;;5094628;28;20461;-75
2023/06/05 03:39:33;;;;;;;2.37;2.17;;;16.60;59.20;;;;;;5094286;28;20493;-74
2023/06/05 03:42:03;;;;;;;2.37;2.17;;;16.50;59.10;;;;;;5094680;28;20483;-74
2023/06/05 03:44:30;;;;;;;2.13;1.50;;;16.50;59.20;;;;;;5089483;28;20466;-76
2023/06/05 03:46:57;;;;;;;2.73;2.00;;;16.50;59.20;;;;;;5074504;28;20463;-76
2023/06/05 03:49:25;;;;;;;3.40;2.40;;;16.50;59.30;;;;;;5074981;28;20470;-76
2023/06/05 03:51:52;;;;;;;4.17;2.20;;;16.50;59.50;;;;;;5074249;28;20466;-74
2023/06/05 03:54:25;;;;;;;3.47;2.40;;;16.40;59.50;;;;;;5074414;28;20470;-76
2023/06/05 03:56:54;;;;;;;2.80;2.40;;;16.40;59.60;;;;;;5073086;28;20462;-76
2023/06/05 03:59:23;;;;;;;3.10;2.80;;;16.40;59.70;;;;;;5074122;28;20470;-75
2023/06/05 04:01:51;;;;;;;2.77;2.57;;;16.40;59.70;;;;;;5066896;28;20469;-75
2023/06/05 04:04:18;;;;;;;2.57;2.23;;;16.40;59.90;;;;;;5062767;28;20483;-75
2023/06/05 04:06:45;;;;;;;4.30;2.13;;;16.40;60.00;;;;;;5066758;28;20484;-76
2023/06/05 04:09:12;;;;;;;2.53;2.33;;;16.40;59.80;;;;;;5075085;28;20474;-77
2023/06/05 04:11:44;;;;;;;1.80;1.70;;;16.50;59.80;;;;;;5054278;28;20459;-76
2023/06/05 04:14:12;;;;;;;3.60;3.00;;;16.50;59.90;;;;;;5054887;28;20474;-76
2023/06/05 04:16:40;;;;;;;3.33;2.33;;;16.50;59.80;;;;;;5055828;28;20475;-75
2023/06/05 04:19:09;;;;;;;3.77;2.10;;;16.50;59.80;;;;;;5090569;28;20472;-76
2023/06/05 04:21:37;;;;;;;2.50;2.30;;;16.60;59.90;;;;;;5073727;28;20475;-77
2023/06/05 04:24:06;;;;;;;2.63;2.43;;;16.60;59.80;;;;;;5073785;28;20471;-77
2023/06/05 04:26:34;;;;;;;2.70;2.47;;;16.60;59.90;;;;;;5071799;28;20470;-77
2023/06/05 04:29:04;;;;;;;2.83;2.63;;;16.60;59.80;;;;;;5073541;28;20466;-76
2023/06/05 04:31:32;;;;;;;3.57;2.60;;;16.70;59.80;;;;;;5073718;28;20569;-76
2023/06/05 04:34:01;;;;;;;2.73;1.90;;;16.80;60.00;;;;;;5073203;28;20472;-77
2023/06/05 04:36:29;;;;;;;4.77;2.37;;;16.80;60.00;;;;;;5073313;28;20474;-77
2023/06/05 04:38:57;;;;;;;5.03;2.60;;;16.80;60.00;;;;;;5072937;28;20446;-76
2023/06/05 04:41:24;;;;;;;2.40;2.20;;;16.80;59.90;;;;;;5073378;28;20481;-76
2023/06/05 04:43:51;;;;;;;2.53;2.20;;;16.90;59.90;;;;;;5073286;28;20932;-77
2023/06/05 04:46:19;;;;;;;2.90;2.33;;;17.00;60.00;;;;;;5054374;28;20483;-76
2023/06/05 04:48:46;;;;;;;2.40;2.20;;;17.00;59.90;;;;;;5052904;28;20953;-76
2023/06/05 04:51:13;;;;;;;2.90;2.27;;;17.00;59.90;;;;;;5053568;28;20520;-77
2023/06/05 04:53:41;;;;;;;2.43;1.90;;;17.10;59.90;;;;;;5042544;28;20957;-77
2023/06/05 04:56:09;;;;;;;2.83;2.63;;;17.20;59.90;;;;;;5052849;28;20612;-77
2023/06/05 04:58:37;;;;;;;4.00;2.83;;;17.20;60.20;;;;;;5053193;28;20536;-75
2023/06/05 05:01:06;;;;;;;4.23;2.40;;;17.30;60.10;;;;;;5052804;28;20474;-77
2023/06/05 05:03:35;;;;;;;4.27;2.80;;;17.40;60.20;;;;;;5052577;28;20482;-76
2023/06/05 05:06:02;;;;;;;3.40;2.63;;;17.40;60.40;;;;;;5052014;28;20467;-77
2023/06/05 05:08:31;;;;;;;4.07;2.40;;;17.50;60.30;;;;;;5052046;28;20468;-76
2023/06/05 05:10:58;;;;;;;3.03;2.70;;;17.60;60.50;;;;;;5064784;28;20466;-76
2023/06/05 05:13:25;;;;;;;4.10;2.33;;;17.60;59.90;;;;;;5073173;28;20964;-76
2023/06/05 05:15:53;;;;;;;4.03;2.20;;;17.70;59.50;;;;;;5072190;28;20497;-77
2023/06/05 05:18:23;;;;;;;3.53;2.50;;;17.70;59.40;;;;;;5087587;28;20465;-76
2023/06/05 05:20:53;;;;;;;3.37;2.07;;;17.80;59.30;;;;;;5092740;28;20928;-76
2023/06/05 05:23:21;;;;;;;2.20;2.00;;;17.90;59.30;;;;;;5093183;28;20466;-78
2023/06/05 05:25:48;;;;;;;2.90;2.10;;;17.90;59.40;;;;;;5092619;28;20474;-77
2023/06/05 05:28:15;;;;;;;2.90;2.20;;;18.00;59.30;;;;;;5093147;28;20474;-76
2023/06/05 05:30:42;;;;;;;2.77;2.27;;;18.10;59.10;;;;;;5092903;28;20470;-76
2023/06/05 05:33:09;;;;;;;2.50;2.30;;;18.10;59.10;;;;;;5092857;28;20478;-77
2023/06/05 05:35:37;;;;;;;3.90;3.00;;;18.20;59.00;;;;;;5093364;28;20534;-76
2023/06/05 05:38:06;;;;;;;5.00;2.23;;;18.30;58.90;;;;;;5092561;28;20461;-77
2023/06/05 05:40:40;;;;;;;4.20;2.47;;;18.30;58.70;;;;;;5077144;28;20971;-77
2023/06/05 05:43:09;;;;;;;2.67;2.43;;;18.40;58.70;;;;;;5062270;28;20468;-77
2023/06/05 05:46:13;;;;;;;8.17;3.90;;;18.40;58.80;;;;;;5072738;28;20569;-76
2023/06/05 05:48:40;;;;;;;4.83;3.50;;;18.50;59.10;;;;;;5072211;28;20466;-75
2023/06/05 05:51:08;;;;;;;4.50;4.10;;;18.60;58.80;;;;;;5072328;28;20472;-75
2023/06/05 05:53:36;;;;;;;3.90;2.80;;;18.70;58.50;;;;;;5069542;28;20462;-76
2023/06/05 05:56:04;;;;;;;3.50;2.80;;;18.80;58.30;;;;;;5072557;28;20470;-77
2023/06/05 05:58:31;;;;;;;6.17;3.30;;;18.90;58.40;;;;;;5071746;28;20525;-77
2023/06/05 06:00:59;;;;;;;4.10;2.70;;;19.00;58.40;;;;;;5072333;28;20466;-76
2023/06/05 06:03:27;;;;;;;9.57;3.63;;;19.10;58.40;;;;;;5072374;28;20545;-75
2023/06/05 06:05:56;;;;;;;3.03;2.73;;;19.20;58.70;;;;;;5072127;28;20465;-76
2023/06/05 06:08:26;;;;;;;5.20;4.00;;;19.30;59.20;;;;;;5072203;28;20814;-76
2023/06/05 06:10:56;;;;;;;3.80;3.50;;;19.40;59.60;;;;;;5072397;28;20538;-76
2023/06/05 06:13:23;;;;;;;7.53;4.00;;;19.50;59.50;;;;;;5071957;28;20466;-77
2023/06/05 06:15:51;;;;;;;4.20;2.90;;;19.60;59.70;;;;;;5072000;28;20473;-76
2023/06/05 06:18:19;;;;;;;3.30;2.90;;;19.80;59.50;;;;;;5087942;28;20473;-76
2023/06/05 06:20:47;;;;;;;7.13;6.40;;;19.90;59.10;;;;;;5093990;28;20475;-75
2023/06/05 06:23:15;;;;;;;11.57;9.77;;;20.00;58.90;;;;;;5096161;28;20457;-75
2023/06/05 06:25:42;;;;;;;11.63;7.80;;;20.20;59.20;;;;;;5094869;28;20500;-76
2023/06/05 06:28:11;;;;;;;8.03;7.23;;;20.30;59.40;;;;;;5095933;28;20496;-75
2023/06/05 06:30:39;;;;;;;6.07;5.47;;;20.40;59.30;;;;;;5095701;28;20483;-76
2023/06/05 06:33:06;;;;;;;4.43;4.03;;;20.50;59.40;;;;;;5096202;28;20491;-76
2023/06/05 06:35:34;;;;;;;4.43;4.00;;;20.70;59.50;;;;;;5095930;28;20477;-77
2023/06/05 06:38:04;;;;;;;4.67;4.00;;;20.80;59.60;;;;;;5095661;28;20465;-77
2023/06/05 06:40:32;;;;;;;6.30;3.87;;;21.00;59.40;;;;;;5080551;28;20556;-74
2023/06/05 06:42:59;;;;;;;4.03;3.50;;;21.10;59.00;;;;;;5074752;28;20459;-76
2023/06/05 06:45:28;;;;;;;3.63;2.60;;;21.30;56.80;;;;;;5076179;28;20466;-77
2023/06/05 06:47:55;;;;;;;2.97;2.67;;;21.50;55.20;;;;;;5075273;28;20549;-77
2023/06/05 06:50:26;;;;;;;6.07;2.60;;;21.60;54.70;;;;;;5075584;28;20478;-77
2023/06/05 06:52:53;;;;;;;4.87;2.83;;;21.80;55.00;;;;;;5075232;28;20531;-76
2023/06/05 06:55:20;;;;;;;6.87;2.77;;;21.90;53.90;;;;;;5073475;28;20478;-76
2023/06/05 06:57:48;;;;;;;7.33;2.90;;;22.10;54.30;;;;;;5075725;28;20497;-75
2023/06/05 07:00:15;;;;;;;11.53;2.83;;;22.30;54.20;;;;;;5076447;28;20523;-76
2023/06/05 07:02:44;;;;;;;3.93;2.37;;;22.40;54.60;;;;;;5076922;28;20470;-75
2023/06/05 07:05:11;;;;;;;3.43;2.60;;;22.60;55.20;;;;;;5076597;28;20470;-75
2023/06/05 07:07:38;;;;;;;6.70;3.10;;;22.80;53.60;;;;;;5075735;28;20470;-77
2023/06/05 07:10:05;;;;;;;5.50;2.93;;;22.90;53.80;;;;;;5074418;28;20473;-76
2023/06/05 07:12:32;;;;;;;3.30;2.93;;;23.10;54.20;;;;;;5075670;28;20858;-75
2023/06/05 07:14:59;;;;;;;3.20;2.90;;;23.30;54.20;;;;;;5074977;28;20485;-76
2023/06/05 07:17:29;;;;;;;7.03;3.20;;;23.40;54.20;;;;;;5083250;28;20464;-76
2023/06/05 07:19:57;;;;;;;8.50;3.40;;;23.60;53.30;;;;;;5094908;28;20465;-76
2023/06/05 07:22:28;;;;;;;6.70;3.40;;;23.80;51.40;;;;;;5095337;28;20469;-77
2023/06/05 07:24:55;;;;;;;9.60;4.80;;;23.90;51.50;;;;;;5094712;28;20830;-75
2023/06/05 07:27:23;;;;;;;4.60;3.20;;;23.90;49.80;;;;;;5094966;28;20476;-77
2023/06/05 07:29:53;;;;;;;3.30;2.80;;;24.10;51.00;;;;;;5094625;28;20457;-77
2023/06/05 07:32:20;;;;;;;3.90;2.67;;;24.20;51.50;;;;;;5094671;28;20459;-75
2023/06/05 07:34:47;;;;;;;5.73;3.47;;;24.40;51.10;;;;;;5094264;28;20556;-75
2023/06/05 07:37:16;;;;;;;4.50;3.03;;;24.60;50.40;;;;;;5094709;28;20499;-75
2023/06/05 07:39:43;;;;;;;5.13;2.83;;;24.80;51.00;;;;;;5086407;28;20474;-76
2023/06/05 07:42:10;;;;;;;6.90;5.90;;;25.00;50.50;;;;;;5074105;28;20500;-75
2023/06/05 07:44:37;;;;;;;4.10;3.40;;;25.00;48.30;;;;;;5074818;28;20462;-76
2023/06/05 07:47:05;;;;;;;3.87;2.37;;;25.20;48.70;;;;;;5074098;28;20494;-76
2023/06/05 07:49:33;;;;;;;3.60;2.90;;;25.30;47.90;;;;;;5073919;28;20532;-76
2023/06/05 07:52:08;;;;;;;5.60;3.37;;;25.40;47.50;;;;;;5071790;28;20547;-76
2023/06/05 07:54:37;;;;;;;2.70;1.80;;;25.50;47.10;;;;;;5074775;28;20461;-76
2023/06/05 07:57:08;;;;;;;2.47;2.27;;;25.50;45.00;;;;;;5073612;28;20482;-77
2023/06/05 07:59:35;;;;;;;2.90;2.00;;;25.60;44.70;;;;;;5074496;28;20936;-76
2023/06/05 08:02:03;;;;;;;3.83;2.40;;;25.70;44.80;;;;;;5072550;28;20478;-76
2023/06/05 08:04:33;;;;;;;4.50;2.50;;;25.80;44.70;;;;;;5074591;28;20553;-77
2023/06/05 08:07:00;;;;;;;2.87;2.67;;;25.80;44.90;;;;;;5072875;28;20477;-78
2023/06/05 08:09:27;;;;;;;3.27;2.60;;;25.80;45.50;;;;;;5073873;28;20854;-76
2023/06/05 08:11:56;;;;;;;4.57;2.80;;;25.90;45.60;;;;;;5073092;28;20467;-77
2023/06/05 08:14:23;;;;;;;3.60;2.17;;;26.00;45.50;;;;;;5074399;28;20454;-77
2023/06/05 08:16:50;;;;;;;2.87;1.87;;;26.00;43.90;;;;;;5076682;28;20936;-78
2023/06/05 08:19:17;;;;;;;2.40;2.20;;;26.20;43.30;;;;;;5094114;28;20457;-77
2023/06/05 08:21:44;;;;;;;3.60;2.37;;;26.20;42.80;;;;;;5093890;28;20990;-77
2023/06/05 08:24:11;;;;;;;7.53;2.70;;;26.20;42.90;;;;;;5093520;28;20450;-78
2023/06/05 08:26:38;;;;;;;6.77;2.37;;;26.30;43.30;;;;;;5093731;28;20469;-77
2023/06/05 08:29:07;;;;;;;4.27;2.10;;;26.30;43.70;;;;;;5093079;28;20473;-77
2023/06/05 08:31:36;;;;;;;2.83;2.30;;;26.30;43.80;;;;;;5092480;28;20480;-76
2023/06/05 08:34:03;;;;;;;4.10;2.40;;;26.30;43.60;;;;;;5093705;28;20469;-78
2023/06/05 08:36:32;;;;;;;6.00;2.87;;;26.30;42.90;;;;;;5094295;28;20982;-77
2023/06/05 08:38:59;;;;;;;6.37;2.33;;;26.30;43.60;;;;;;5090243;28;20563;-77
2023/06/05 08:41:26;;;;;;;5.73;3.07;;;26.30;43.80;;;;;;5073411;28;20466;-77
2023/06/05 08:43:54;;;;;;;4.70;2.47;;;26.30;44.00;;;;;;5071378;28;20558;-77
2023/06/05 08:46:22;;;;;;;2.40;2.20;;;26.30;43.80;;;;;;5073716;28;20467;-76
2023/06/05 08:48:51;;;;;;;3.27;2.67;;;26.30;43.50;;;;;;5074410;28;20481;-76
2023/06/05 08:51:22;;;;;;;6.30;5.67;;;26.30;43.20;;;;;;5072020;28;20537;-76
2023/06/05 08:54:20;;;;;;;6.50;3.63;;;26.30;43.10;;;;;;5079183;28;20466;-77
2023/06/05 08:56:49;;;;;;;3.70;2.20;;;26.30;43.30;;;;;;5070891;28;20797;-77
2023/06/05 08:59:18;;;;;;;3.27;2.30;;;26.30;43.30;;;;;;5073853;28;20960;-77
2023/06/05 09:01:48;;;;;;;4.80;2.63;;;26.30;42.70;;;;;;5062001;28;20805;-77
2023/06/05 09:04:15;;;;;;;7.80;2.63;;;26.30;42.60;;;;;;5062645;28;20546;-77
2023/06/05 09:06:46;;;;;;;3.90;3.50;;;26.30;42.70;;;;;;5072352;28;20488;-77
2023/06/05 09:09:17;;;;;;;7.90;2.80;;;26.30;43.30;;;;;;5072898;28;20470;-77
2023/06/05 09:11:44;;;;;;;2.67;2.43;;;26.30;43.10;;;;;;5072356;28;20466;-77
2023/06/05 09:14:12;;;;;;;5.30;2.67;;;26.30;43.10;;;;;;5073209;28;20462;-77
2023/06/05 09:16:42;;;;;;;4.20;2.83;;;26.30;41.50;;;;;;5074246;28;20548;-76
2023/06/05 09:19:42;;;;;;;2.70;2.50;;;26.20;42.00;;;;;;5075079;28;20477;-76
2023/06/05 09:22:12;;;;;;;3.53;2.10;;;26.20;42.50;;;;;;5062695;28;20466;-76
2023/06/05 09:24:40;;;;;;;2.30;1.90;;;26.20;42.50;;;;;;5072617;28;20494;-76
2023/06/05 09:27:12;;;;;;;6.13;2.40;;;26.10;41.80;;;;;;5062741;28;20470;-77
2023/06/05 09:29:41;;;;;;;3.90;2.10;;;26.10;42.10;;;;;;5072292;28;20863;-76
2023/06/05 09:32:17;;;;;;;4.00;2.13;;;26.10;42.10;;;;;;5072250;28;20550;-77
2023/06/05 09:34:49;;;;;;;3.20;2.30;;;26.00;41.40;;;;;;5072802;28;20971;-76
2023/06/05 09:37:19;;;;;;;1.87;1.70;;;26.00;41.60;;;;;;5062615;28;20569;-75
2023/06/05 09:39:54;;;;;;;6.70;2.07;;;26.00;41.70;;;;;;5072419;28;20489;-75
2023/06/05 09:42:32;;;;;;;2.47;2.00;;;25.90;41.50;;;;;;5071764;28;20566;-75
2023/06/05 09:45:00;;;;;;;2.23;1.83;;;25.90;41.90;;;;;;5072582;28;20474;-75
2023/06/05 09:47:27;;;;;;;2.00;1.80;;;25.90;41.80;;;;;;5073401;28;21004;-77
2023/06/05 09:49:56;;;;;;;3.23;1.90;;;25.90;41.90;;;;;;5072796;28;20477;-77
2023/06/05 09:52:23;;;;;;;1.80;1.70;;;25.80;41.70;;;;;;5071882;28;20466;-76
2023/06/05 09:54:54;;;;;;;2.83;2.40;;;25.80;41.80;;;;;;5074298;28;20462;-76
2023/06/05 09:57:24;;;;;;;4.07;2.87;;;25.80;42.00;;;;;;5075854;28;20466;-76
2023/06/05 09:59:53;;;;;;;3.73;2.83;;;25.80;41.90;;;;;;5076539;28;20526;-76
2023/06/05 10:02:38;;;;;;;7.13;2.37;;;25.80;41.90;;;;;;5065152;28;20513;-77
2023/06/05 10:08:10;;;;;;;3.40;1.90;;;25.80;42.70;;;;;;5076540;28;20482;-75
2023/06/05 10:10:41;;;;;;;2.03;1.83;;;25.70;41.80;;;;;;5075865;28;20453;-76
2023/06/05 10:13:10;;;;;;;3.07;2.40;;;25.70;41.70;;;;;;5076814;28;20458;-75
2023/06/05 10:15:47;;;;;;;2.53;2.20;;;25.80;42.20;;;;;;5076051;28;20462;-74
2023/06/05 10:21:19;;;;;;;4.20;3.23;;;25.80;42.00;;;;;;5054486;28;20478;-75
2023/06/05 10:23:49;;;;;;;4.27;2.20;;;25.80;42.20;;;;;;5041600;28;21004;-75
2023/06/05 10:26:29;;;;;;;2.13;1.93;;;25.70;41.50;;;;;;5066885;28;21047;-75
2023/06/05 10:29:07;;;;;;;2.93;1.73;;;25.70;41.40;;;;;;5073088;28;20485;-76
2023/06/05 10:31:45;;;;;;;2.13;1.90;;;25.70;41.80;;;;;;5076451;28;20472;-76
2023/06/05 10:34:38;;;;;;;6.33;2.47;;;25.70;41.40;;;;;;5077260;28;20781;-75
2023/06/05 10:37:31;;;;;;;5.27;3.70;;;25.70;41.10;;;;;;5077296;28;20462;-76
2023/06/05 10:39:59;;;;;;;3.67;2.63;;;25.80;41.90;;;;;;5076825;28;20493;-76
2023/06/05 10:42:29;;;;;;;3.40;1.63;;;25.70;41.30;;;;;;5077698;28;20515;-75
2023/06/05 10:44:59;;;;;;;7.23;2.20;;;25.70;41.30;;;;;;5077884;28;20546;-75
2023/06/05 10:47:53;;;;;;;4.43;2.27;;;25.70;41.50;;;;;;5078087;28;20474;-74
2023/06/05 10:50:24;;;;;;;4.70;2.50;;;25.60;41.40;;;;;;5078498;28;20466;-75
2023/06/05 10:52:54;;;;;;;4.13;2.10;;;25.60;41.50;;;;;;5059193;28;20449;-77
2023/06/05 10:55:23;;;;;;;4.10;2.10;;;25.60;41.80;;;;;;5077574;28;20465;-77
2023/06/05 10:58:10;;;;;;;3.70;2.20;;;25.60;41.10;;;;;;5076239;28;20557;-77
2023/06/05 11:00:38;;;;;;;4.70;3.00;;;25.60;40.70;;;;;;5076730;28;20462;-75
2023/06/05 11:03:07;;;;;;;2.37;1.93;;;25.60;40.90;;;;;;5077647;28;20840;-75
2023/06/05 11:05:35;;;;;;;2.47;2.10;;;25.60;41.70;;;;;;5077197;28;20470;-77
2023/06/05 11:08:15;;;;;;;3.00;2.67;;;25.60;41.20;;;;;;5076897;28;20557;-77
2023/06/05 11:11:04;;;;;;;2.10;1.97;;;25.70;41.60;;;;;;5076014;28;20490;-77
2023/06/05 11:13:55;;;;;;;2.40;1.87;;;25.80;41.70;;;;;;5077334;28;20470;-76
2023/06/05 11:16:30;;;;;;;2.10;2.00;;;25.80;41.70;;;;;;5076700;28;20474;-76
2023/06/05 11:19:36;;;;;;;2.50;2.30;;;25.90;41.40;;;;;;5055905;28;20912;-76
2023/06/05 11:22:07;;;;;;;3.90;2.40;;;25.90;41.10;;;;;;5055397;28;20454;-77
2023/06/05 11:24:36;;;;;;;2.23;2.03;;;25.80;40.20;;;;;;5056255;28;20534;-76
2023/06/05 11:27:05;;;;;;;2.23;1.77;;;25.80;40.10;;;;;;5054256;28;20475;-76
2023/06/05 11:29:33;;;;;;;2.30;2.03;;;25.80;40.10;;;;;;5054832;28;20952;-77
2023/06/05 11:32:11;;;;;;;3.07;2.77;;;25.90;40.60;;;;;;5054569;28;20550;-75
2023/06/05 11:34:39;;;;;;;4.20;2.60;;;25.90;40.30;;;;;;5055461;28;20466;-75
2023/06/05 11:37:19;;;;;;;5.43;2.30;;;25.90;40.30;;;;;;5043608;28;20499;-76
2023/06/05 11:39:48;;;;;;;2.60;2.03;;;25.90;40.40;;;;;;5054352;28;21026;-76
2023/06/05 11:42:23;;;;;;;2.63;1.83;;;25.90;39.60;;;;;;5054571;28;20473;-75
2023/06/05 11:44:50;;;;;;;4.87;2.50;;;25.80;40.00;;;;;;5052778;28;20467;-75
2023/06/05 11:47:24;;;;;;;2.77;2.57;;;25.80;39.70;;;;;;5054835;28;20479;-75
2023/06/05 11:49:51;;;;;;;4.60;2.33;;;25.80;39.80;;;;;;5054196;28;20478;-75
2023/06/05 11:52:20;;;;;;;2.00;1.90;;;25.80;40.00;;;;;;5054620;28;21042;-76
2023/06/05 11:55:05;;;;;;;3.43;2.47;;;25.80;39.70;;;;;;5053691;28;20809;-75
2023/06/05 11:57:41;;;;;;;2.30;2.10;;;25.80;40.10;;;;;;5053699;28;20467;-75
2023/06/05 12:00:10;;;;;;;2.70;2.43;;;25.90;40.30;;;;;;5054502;28;20467;-76
2023/06/05 12:02:42;;;;;;;2.00;1.90;;;25.90;40.10;;;;;;5058609;28;20484;-75
2023/06/05 12:05:14;;;;;;;3.00;2.70;;;25.90;40.00;;;;;;5061765;28;20482;-75
2023/06/05 12:07:41;;;;;;;2.10;1.90;;;26.00;40.40;;;;;;5066933;28;20474;-75
2023/06/05 12:10:10;;;;;;;4.13;2.00;;;26.00;40.20;;;;;;5072980;28;20528;-74
2023/06/05 12:12:51;;;;;;;3.03;2.73;;;26.00;39.80;;;;;;5053782;28;20497;-75
2023/06/05 12:15:18;;;;;;;2.50;2.30;;;26.00;39.60;;;;;;5068700;28;20470;-73
2023/06/05 12:17:52;;;;;;;7.03;3.03;;;26.00;39.50;;;;;;5048234;28;20471;-74
2023/06/05 12:20:23;;;;;;;4.17;2.50;;;26.00;39.20;;;;;;5064072;28;21297;-75
2023/06/05 12:22:51;;;;;;;2.80;2.60;;;26.10;39.20;;;;;;5053880;28;20814;-76
2023/06/05 12:25:26;;;;;;;3.30;2.73;;;26.10;39.20;;;;;;5053918;28;20481;-74
2023/06/05 12:27:54;;;;;;;2.63;2.20;;;26.10;39.40;;;;;;5051903;28;20528;-75
2023/06/05 12:30:22;;;;;;;3.60;2.80;;;26.10;39.20;;;;;;5052850;28;20805;-74
2023/06/05 12:32:51;;;;;;;3.10;2.70;;;26.20;39.30;;;;;;5052139;28;20967;-76
2023/06/05 12:35:24;;;;;;;6.63;3.17;;;26.20;39.40;;;;;;5052284;28;20471;-75
2023/06/05 12:37:51;;;;;;;3.40;2.47;;;26.20;39.20;;;;;;5052846;28;20463;-75
2023/06/05 12:40:21;;;;;;;2.57;2.37;;;26.10;39.50;;;;;;5038792;28;20467;-76
2023/06/05 12:42:50;;;;;;;3.30;2.27;;;26.20;39.90;;;;;;5053073;28;20463;-76
2023/06/05 12:45:17;;;;;;;2.93;2.53;;;26.20;40.10;;;;;;5052559;28;20973;-76
2023/06/05 12:47:44;;;;;;;2.87;2.67;;;26.20;39.90;;;;;;5053611;28;20545;-76
2023/06/05 12:50:16;;;;;;;2.43;2.23;;;26.20;39.80;;;;;;5053131;28;20905;-76
2023/06/05 12:52:43;;;;;;;2.53;2.30;;;26.20;39.40;;;;;;5052954;28;20468;-76
2023/06/05 12:55:11;;;;;;;2.70;2.50;;;26.20;39.60;;;;;;5053095;28;20534;-76
2023/06/05 12:57:40;;;;;;;4.20;2.77;;;26.20;39.90;;;;;;5053361;28;20467;-76
2023/06/05 13:00:12;;;;;;;4.30;2.43;;;26.20;39.90;;;;;;5052923;28;20460;-74
2023/06/05 13:02:52;;;;;;;3.67;3.23;;;26.10;39.30;;;;;;5051975;28;20866;-74
2023/06/05 13:05:19;;;;;;;1.87;1.73;;;26.00;39.20;;;;;;5052803;28;20455;-76